createdAt,value
2022-12-22T00:00:39.073Z,8.00
2022-12-22T00:03:32.189Z,8.10
2022-12-22T00:06:19.204Z,8.00
2022-12-22T00:09:05.893Z,8.10
2022-12-22T00:11:53.551Z,8.10
2022-12-22T00:14:39.559Z,8.10
2022-12-22T00:17:34.937Z,8.00
2022-12-22T00:20:30.406Z,8.00
2022-12-22T00:23:17.646Z,8.10
2022-12-22T00:26:04.116Z,8.10
2022-12-22T00:28:50.382Z,8.00
2022-12-22T00:31:38.526Z,8.00
2022-12-22T00:34:32.449Z,8.00
2022-12-22T00:37:20.554Z,7.90
2022-12-22T00:40:07.223Z,7.80
2022-12-22T00:42:53.358Z,7.80
2022-12-22T00:45:40.478Z,7.70
2022-12-22T00:48:37.807Z,7.80
2022-12-22T00:51:25.825Z,7.80
2022-12-22T00:54:13.514Z,7.80
2022-12-22T00:57:00.354Z,7.70
2022-12-22T00:59:47.495Z,7.70
2022-12-22T01:02:34.772Z,7.70
2022-12-22T01:05:20.947Z,7.70
2022-12-22T01:08:08.124Z,7.70
2022-12-22T01:10:55.547Z,7.70
2022-12-22T01:13:43.017Z,7.60
2022-12-22T01:16:30.032Z,7.60
2022-12-22T01:19:16.069Z,7.60
2022-12-22T01:22:01.963Z,7.60
2022-12-22T01:24:48.673Z,7.50
2022-12-22T01:27:36.115Z,7.60
2022-12-22T01:30:22.564Z,7.60
2022-12-22T01:33:08.801Z,7.60
2022-12-22T01:35:55.563Z,7.50
2022-12-22T01:38:41.725Z,7.50
2022-12-22T01:41:31.937Z,7.50
2022-12-22T01:44:19.626Z,7.50
2022-12-22T01:47:06.585Z,7.50
2022-12-22T01:49:55.858Z,7.50
2022-12-22T01:52:44.685Z,7.50
2022-12-22T01:55:34.349Z,7.60
2022-12-22T01:58:20.237Z,7.50
2022-12-22T02:01:07.949Z,7.50
2022-12-22T02:03:54.395Z,7.40
2022-12-22T02:06:47.260Z,7.40
2022-12-22T02:09:48.760Z,7.50
2022-12-22T02:12:43.422Z,7.60
2022-12-22T02:15:37.611Z,7.50
2022-12-22T02:18:31.702Z,7.60
2022-12-22T02:21:21.395Z,7.50
2022-12-22T02:24:22.654Z,7.50
2022-12-22T02:27:14.530Z,7.50
2022-12-22T02:30:06.864Z,7.50
2022-12-22T02:32:54.990Z,7.50
2022-12-22T02:35:41.195Z,7.60
2022-12-22T02:38:38.372Z,7.60
2022-12-22T02:41:34.176Z,7.60
2022-12-22T02:44:36.509Z,7.60
2022-12-22T02:47:29.443Z,7.60
2022-12-22T02:50:21.189Z,7.60
2022-12-22T02:53:08.307Z,7.60
2022-12-22T02:55:55.229Z,7.60
2022-12-22T02:58:41.896Z,7.70
2022-12-22T03:01:30.366Z,7.70
2022-12-22T03:04:16.261Z,7.70
2022-12-22T03:07:02.750Z,7.60
2022-12-22T03:09:48.947Z,7.70
2022-12-22T03:12:35.206Z,7.70
2022-12-22T03:15:21.175Z,7.80
2022-12-22T03:18:09.783Z,7.70
2022-12-22T03:20:55.679Z,7.70
2022-12-22T03:23:42.140Z,7.70
2022-12-22T03:26:10.815Z,7.70
2022-12-22T03:28:39.411Z,7.70
2022-12-22T03:31:09.761Z,7.70
2022-12-22T03:33:40.009Z,7.60
2022-12-22T03:36:10.186Z,7.70
2022-12-22T03:38:38.813Z,7.70
2022-12-22T03:41:07.591Z,7.70
2022-12-22T03:43:55.971Z,7.60
2022-12-22T03:46:33.843Z,7.70
2022-12-22T03:49:12.731Z,7.70
2022-12-22T03:51:44.489Z,7.70
2022-12-22T03:54:14.125Z,7.60
2022-12-22T03:56:43.296Z,7.60
2022-12-22T03:59:12.315Z,7.60
2022-12-22T04:01:42.808Z,7.60
2022-12-22T04:04:15.536Z,7.60
2022-12-22T04:06:44.294Z,7.60
2022-12-22T04:09:13.443Z,7.50
2022-12-22T04:11:59.536Z,7.60
2022-12-22T04:14:33.835Z,7.60
2022-12-22T04:17:03.640Z,7.50
2022-12-22T04:19:33.849Z,7.50
2022-12-22T04:22:02.935Z,7.50
2022-12-22T04:24:31.551Z,7.50
2022-12-22T04:27:00.265Z,7.50
2022-12-22T04:29:28.787Z,7.50
2022-12-22T04:31:57.443Z,7.50
2022-12-22T04:34:26.107Z,7.50
2022-12-22T04:37:02.364Z,7.50
2022-12-22T04:39:36.686Z,7.50
2022-12-22T04:42:05.361Z,7.40
2022-12-22T04:44:33.945Z,7.40
2022-12-22T04:47:02.578Z,7.40
2022-12-22T04:49:31.300Z,7.40
2022-12-22T04:52:01.301Z,7.40
2022-12-22T04:54:31.753Z,7.30
2022-12-22T04:57:04.700Z,7.30
2022-12-22T04:59:34.208Z,7.30
2022-12-22T05:02:02.950Z,7.20
2022-12-22T05:04:32.515Z,7.30
2022-12-22T05:07:02.651Z,7.20
2022-12-22T05:09:31.273Z,7.30
2022-12-22T05:11:59.800Z,7.30
2022-12-22T05:14:28.427Z,7.30
2022-12-22T05:16:57.016Z,7.20
2022-12-22T05:19:30.561Z,7.20
2022-12-22T05:21:59.596Z,7.20
2022-12-22T05:24:29.633Z,7.20
2022-12-22T05:26:58.321Z,7.30
2022-12-22T05:29:26.963Z,7.30
2022-12-22T05:31:55.643Z,7.30
2022-12-22T05:34:24.254Z,7.30
2022-12-22T05:36:53.013Z,7.30
2022-12-22T05:39:21.693Z,7.30
2022-12-22T05:41:51.756Z,7.40
2022-12-22T05:44:20.337Z,7.40
2022-12-22T05:46:51.283Z,7.30
2022-12-22T05:49:20.115Z,7.40
2022-12-22T05:51:50.007Z,7.40
2022-12-22T05:54:18.570Z,7.40
2022-12-22T05:56:47.240Z,7.40
2022-12-22T05:59:17.331Z,7.40
2022-12-22T06:01:46.073Z,7.40
2022-12-22T06:04:14.769Z,7.30
2022-12-22T06:06:43.417Z,7.30
2022-12-22T06:09:12.044Z,7.30
2022-12-22T06:11:40.707Z,7.20
2022-12-22T06:14:09.295Z,7.10
2022-12-22T06:16:39.354Z,7.10
2022-12-22T06:19:08.037Z,7.00
2022-12-22T06:21:36.575Z,7.10
2022-12-22T06:24:06.117Z,7.10
2022-12-22T06:26:34.822Z,7.10
2022-12-22T06:29:03.424Z,7.10
2022-12-22T06:31:32.274Z,7.10
2022-12-22T06:34:02.354Z,7.10
2022-12-22T06:36:31.938Z,7.20
2022-12-22T06:39:00.528Z,7.20
2022-12-22T06:41:46.337Z,7.20
2022-12-22T06:44:14.997Z,7.20
2022-12-22T06:46:43.569Z,7.30
2022-12-22T06:49:13.650Z,7.40
2022-12-22T06:51:42.224Z,7.40
2022-12-22T06:54:10.824Z,7.40
2022-12-22T06:56:39.465Z,7.50
2022-12-22T06:59:08.080Z,7.40
2022-12-22T07:01:36.707Z,7.50
2022-12-22T07:04:05.702Z,7.60
2022-12-22T07:06:35.792Z,7.70
2022-12-22T07:09:06.336Z,7.70
2022-12-22T07:11:34.926Z,7.80
2022-12-22T07:14:03.485Z,7.80
2022-12-22T07:16:32.145Z,7.90
2022-12-22T07:19:00.766Z,7.90
2022-12-22T07:21:29.409Z,7.90
2022-12-22T07:23:59.432Z,8.00
2022-12-22T07:26:27.978Z,8.10
2022-12-22T07:28:56.550Z,8.30
2022-12-22T07:31:25.490Z,8.50
2022-12-22T07:33:54.105Z,8.60
2022-12-22T07:36:22.985Z,8.70
2022-12-22T07:38:53.309Z,8.80
2022-12-22T07:41:40.906Z,8.80
2022-12-22T07:44:09.731Z,8.90
2022-12-22T07:46:40.871Z,8.90
2022-12-22T07:49:26.904Z,9.00
2022-12-22T07:51:57.989Z,9.00
2022-12-22T07:54:28.209Z,9.20
2022-12-22T07:56:58.335Z,9.30
2022-12-22T07:59:27.126Z,9.40
2022-12-22T08:01:55.768Z,9.40
2022-12-22T08:04:24.572Z,9.60
2022-12-22T08:06:53.211Z,9.70
2022-12-22T08:09:23.169Z,9.80
2022-12-22T08:11:51.854Z,9.90
2022-12-22T08:14:21.897Z,10.10
2022-12-22T08:16:50.574Z,10.10
2022-12-22T08:19:19.254Z,10.20
2022-12-22T08:21:52.786Z,10.30
2022-12-22T08:24:22.428Z,10.30
2022-12-22T08:26:55.954Z,10.50
2022-12-22T08:29:30.464Z,10.60
2022-12-22T08:31:59.922Z,10.70
2022-12-22T08:34:28.609Z,10.80
2022-12-22T08:37:00.593Z,10.80
2022-12-22T08:39:32.946Z,11.00
2022-12-22T08:42:02.401Z,11.20
2022-12-22T08:44:32.719Z,11.40
2022-12-22T08:47:01.782Z,11.60
2022-12-22T08:49:30.408Z,11.60
2022-12-22T08:51:59.091Z,11.70
2022-12-22T08:54:27.770Z,11.80
2022-12-22T08:56:56.452Z,11.90
2022-12-22T08:59:25.067Z,12.10
2022-12-22T09:01:55.205Z,12.10
2022-12-22T09:04:25.496Z,12.20
2022-12-22T09:06:54.438Z,12.20
2022-12-22T09:09:23.160Z,12.30
2022-12-22T09:11:51.933Z,12.40
2022-12-22T09:14:20.568Z,12.50
2022-12-22T09:16:50.526Z,12.50
2022-12-22T09:19:20.875Z,12.50
2022-12-22T09:21:49.573Z,12.70
2022-12-22T09:24:18.566Z,12.60
2022-12-22T09:26:47.240Z,12.60
2022-12-22T09:29:16.927Z,12.70
2022-12-22T09:31:45.745Z,12.70
2022-12-22T09:34:17.989Z,12.80
2022-12-22T09:36:49.197Z,12.50
2022-12-22T09:39:22.188Z,12.70
2022-12-22T09:41:55.663Z,12.70
2022-12-22T09:44:27.096Z,12.90
2022-12-22T09:46:58.562Z,12.80
2022-12-22T09:49:27.836Z,12.90
2022-12-22T09:52:04.303Z,13.00
2022-12-22T09:54:33.996Z,13.20
2022-12-22T09:57:03.217Z,13.20
2022-12-22T09:59:32.659Z,13.30
2022-12-22T10:02:11.711Z,13.20
2022-12-22T10:05:00.053Z,13.10
2022-12-22T10:07:33.814Z,12.90
2022-12-22T10:10:08.380Z,12.80
2022-12-22T10:12:37.133Z,12.80
2022-12-22T10:15:06.602Z,12.90
2022-12-22T10:17:38.564Z,12.90
2022-12-22T10:20:22.421Z,13.00
2022-12-22T10:22:58.847Z,13.00
2022-12-22T10:28:26.122Z,12.90
2022-12-22T10:31:20.247Z,13.00
2022-12-22T10:33:50.577Z,13.00
2022-12-22T10:36:25.126Z,13.00
2022-12-22T10:38:59.968Z,12.90
2022-12-22T10:41:31.596Z,12.80
2022-12-22T10:44:03.519Z,12.90
2022-12-22T10:46:36.736Z,12.70
2022-12-22T10:49:16.434Z,12.70
2022-12-22T10:51:53.007Z,12.80
2022-12-22T10:54:32.859Z,12.90
2022-12-22T10:57:06.476Z,12.90
2022-12-22T10:59:35.729Z,13.00
2022-12-22T11:02:28.815Z,13.10
2022-12-22T11:05:04.317Z,13.20
2022-12-22T11:07:35.917Z,13.30
2022-12-22T11:10:19.070Z,13.50
2022-12-22T11:13:07.911Z,13.70
2022-12-22T11:15:46.746Z,14.00
2022-12-22T11:18:37.171Z,14.00
2022-12-22T11:21:18.660Z,14.10
2022-12-22T11:24:01.067Z,14.10
2022-12-22T11:26:42.980Z,13.90
2022-12-22T11:29:28.433Z,13.80
2022-12-22T11:32:17.115Z,13.90
2022-12-22T11:34:58.167Z,14.00
2022-12-22T11:37:37.405Z,13.90
2022-12-22T11:40:18.408Z,13.60
2022-12-22T11:43:03.324Z,13.70
2022-12-22T11:45:46.145Z,13.80
2022-12-22T11:48:37.798Z,14.00
2022-12-22T11:51:11.984Z,14.20
2022-12-22T11:54:17.777Z,14.20
2022-12-22T11:56:52.890Z,14.60
2022-12-22T11:59:37.060Z,14.80
2022-12-22T12:02:33.537Z,14.80
2022-12-22T12:05:19.489Z,14.80
2022-12-22T12:07:53.230Z,14.80
2022-12-22T12:10:26.805Z,14.80
2022-12-22T12:13:02.951Z,15.10
2022-12-22T12:15:38.119Z,15.10
2022-12-22T12:18:37.581Z,15.20
2022-12-22T12:21:26.016Z,15.00
2022-12-22T12:24:08.242Z,15.00
2022-12-22T12:26:45.662Z,14.80
2022-12-22T12:29:20.121Z,14.80
2022-12-22T12:31:58.671Z,15.00
2022-12-22T12:34:28.819Z,15.20
2022-12-22T12:37:04.015Z,15.20
2022-12-22T12:39:39.316Z,15.10
2022-12-22T12:42:22.640Z,15.00
2022-12-22T12:44:53.949Z,15.00
2022-12-22T12:47:27.194Z,15.30
2022-12-22T12:50:02.885Z,15.70
2022-12-22T12:53:14.226Z,15.70
2022-12-22T12:56:04.052Z,15.60
2022-12-22T12:58:55.110Z,15.50
2022-12-22T13:01:56.375Z,15.30
2022-12-22T13:05:13.936Z,15.00
2022-12-22T13:08:14.529Z,14.70
2022-12-22T13:11:11.479Z,14.70
2022-12-22T13:14:00.833Z,14.60
2022-12-22T13:16:40.768Z,14.50
2022-12-22T13:19:24.615Z,14.40
2022-12-22T13:21:57.998Z,14.40
2022-12-22T13:24:32.302Z,14.30
2022-12-22T13:27:07.784Z,14.30
2022-12-22T13:29:44.399Z,14.20
2022-12-22T13:32:34.277Z,14.10
2022-12-22T13:37:57.618Z,14.10
2022-12-22T13:40:30.739Z,14.00
2022-12-22T13:43:04.234Z,14.00
2022-12-22T13:45:43.359Z,13.90
2022-12-22T13:48:16.769Z,13.80
2022-12-22T13:50:49.952Z,13.80
2022-12-22T13:56:18.243Z,13.70
2022-12-22T13:58:52.499Z,13.70
2022-12-22T14:01:21.780Z,13.70
2022-12-22T14:04:01.720Z,13.70
2022-12-22T14:06:33.832Z,13.80
2022-12-22T14:09:18.236Z,13.80
2022-12-22T14:11:52.969Z,13.80
2022-12-22T14:14:26.075Z,13.80
2022-12-22T14:16:57.091Z,13.80
2022-12-22T14:19:26.883Z,13.80
2022-12-22T14:22:06.000Z,13.70
2022-12-22T14:24:39.024Z,13.60
2022-12-22T14:27:18.847Z,13.50
2022-12-22T14:29:47.784Z,13.50
2022-12-22T14:32:36.184Z,13.30
2022-12-22T14:35:05.431Z,13.30
2022-12-22T14:37:34.029Z,13.30
2022-12-22T14:40:02.814Z,13.40
2022-12-22T14:42:34.478Z,13.30
2022-12-22T14:45:03.178Z,13.40
2022-12-22T14:47:31.812Z,13.40
2022-12-22T14:50:04.328Z,13.30
2022-12-22T14:52:39.575Z,13.20
2022-12-22T14:55:24.939Z,13.20
2022-12-22T14:57:57.981Z,13.10
2022-12-22T15:00:34.944Z,13.10
2022-12-22T15:03:06.425Z,13.10
2022-12-22T15:05:38.093Z,13.20
2022-12-22T15:08:09.791Z,13.20
2022-12-22T15:10:43.066Z,13.20
2022-12-22T15:13:22.750Z,13.20
2022-12-22T15:15:52.009Z,13.00
2022-12-22T15:18:25.992Z,12.90
2022-12-22T15:20:55.285Z,12.80
2022-12-22T15:23:24.212Z,12.80
2022-12-22T15:25:54.500Z,12.80
2022-12-22T15:28:24.577Z,12.90
2022-12-22T15:30:53.357Z,12.90
2022-12-22T15:33:22.106Z,12.80
2022-12-22T15:35:50.975Z,12.70
2022-12-22T15:38:26.594Z,12.70
2022-12-22T15:40:55.341Z,12.60
2022-12-22T15:46:18.899Z,12.70
2022-12-22T15:48:48.192Z,12.60
2022-12-22T15:51:21.715Z,12.50
2022-12-22T15:53:51.757Z,12.40
2022-12-22T15:56:24.212Z,12.40
2022-12-22T15:58:55.672Z,12.30
2022-12-22T16:01:24.466Z,12.30
2022-12-22T16:03:53.171Z,12.20
2022-12-22T16:06:22.778Z,12.20
2022-12-22T16:08:54.664Z,12.20
2022-12-22T16:11:25.199Z,12.20
2022-12-22T16:13:55.266Z,12.10
2022-12-22T16:16:23.923Z,12.00
2022-12-22T16:18:52.720Z,11.90
2022-12-22T16:21:26.047Z,12.00
2022-12-22T16:23:55.665Z,11.90
2022-12-22T16:26:24.291Z,11.90
2022-12-22T16:28:55.511Z,11.80
2022-12-22T16:31:26.261Z,11.80
2022-12-22T16:33:54.931Z,11.70
2022-12-22T16:36:23.511Z,11.70
2022-12-22T16:38:53.739Z,11.70
2022-12-22T16:41:25.327Z,11.70
2022-12-22T16:44:05.329Z,11.70
2022-12-22T16:46:37.834Z,11.70
2022-12-22T16:49:09.190Z,11.70
2022-12-22T16:51:44.676Z,11.70
2022-12-22T16:54:15.605Z,11.70
2022-12-22T16:56:47.101Z,11.80
2022-12-22T16:59:18.383Z,11.70
2022-12-22T17:01:51.114Z,11.80
2022-12-22T17:04:26.012Z,11.80
2022-12-22T17:06:56.632Z,11.80
2022-12-22T17:09:31.110Z,11.80
2022-12-22T17:12:00.749Z,11.70
2022-12-22T17:14:34.352Z,11.70
2022-12-22T17:17:04.966Z,11.70
2022-12-22T17:19:33.582Z,11.70
2022-12-22T17:22:02.553Z,11.60
2022-12-22T17:24:31.104Z,11.70
2022-12-22T17:27:03.937Z,11.60
2022-12-22T17:29:35.272Z,11.60
2022-12-22T17:32:04.794Z,11.50
2022-12-22T17:34:33.325Z,11.50
2022-12-22T17:37:01.914Z,11.50
2022-12-22T17:39:30.463Z,11.40
2022-12-22T17:41:58.879Z,11.50
2022-12-22T17:44:28.523Z,11.60
2022-12-22T17:47:00.778Z,11.60
2022-12-22T17:49:29.261Z,11.60
2022-12-22T17:51:57.924Z,11.60
2022-12-22T17:54:27.837Z,11.60
2022-12-22T17:57:01.804Z,11.70
2022-12-22T17:59:30.825Z,11.80
2022-12-22T18:02:01.631Z,11.70
2022-12-22T18:04:30.261Z,11.70
2022-12-22T18:06:59.767Z,11.70
2022-12-22T18:09:28.490Z,11.80
2022-12-22T18:11:56.995Z,11.70
2022-12-22T18:14:25.510Z,11.70
2022-12-22T18:16:54.263Z,11.70
2022-12-22T18:19:24.193Z,11.70
2022-12-22T18:21:52.626Z,11.70
2022-12-22T18:24:21.116Z,11.70
2022-12-22T18:26:49.621Z,11.60
2022-12-22T18:29:18.681Z,11.60
2022-12-22T18:31:47.265Z,11.60
2022-12-22T18:34:15.744Z,11.60
2022-12-22T18:36:47.800Z,11.60
2022-12-22T18:39:20.320Z,11.50
2022-12-22T18:41:49.117Z,11.50
2022-12-22T18:44:18.298Z,11.50
2022-12-22T18:46:47.607Z,11.50
2022-12-22T18:49:16.802Z,11.60
2022-12-22T18:51:47.163Z,11.60
2022-12-22T18:54:24.288Z,11.60
2022-12-22T18:56:53.621Z,11.60
2022-12-22T18:59:25.562Z,11.60
2022-12-22T19:01:54.347Z,11.50
2022-12-22T19:04:23.915Z,11.50
2022-12-22T19:06:53.881Z,11.50
2022-12-22T19:09:23.409Z,11.50
2022-12-22T19:11:51.932Z,11.50
2022-12-22T19:14:23.263Z,11.50
2022-12-22T19:16:51.886Z,11.50
2022-12-22T19:19:22.445Z,11.50
2022-12-22T19:21:50.957Z,11.40
2022-12-22T19:24:20.920Z,11.40
2022-12-22T19:26:49.477Z,11.50
2022-12-22T19:29:18.513Z,11.40
2022-12-22T19:31:47.131Z,11.40
2022-12-22T19:34:21.041Z,11.40
2022-12-22T19:36:49.800Z,11.40
2022-12-22T19:39:18.210Z,11.50
2022-12-22T19:41:50.611Z,11.50
2022-12-22T19:44:22.234Z,11.50
2022-12-22T19:46:51.543Z,11.50
2022-12-22T19:49:21.582Z,11.50
2022-12-22T19:51:50.231Z,11.50
2022-12-22T19:54:19.646Z,11.50
2022-12-22T19:56:53.103Z,11.50
2022-12-22T19:59:30.933Z,11.50
2022-12-22T20:02:02.897Z,11.40
2022-12-22T20:04:31.528Z,11.40
2022-12-22T20:07:00.237Z,11.40
2022-12-22T20:09:28.657Z,11.40
2022-12-22T20:11:58.571Z,11.30
2022-12-22T20:14:27.060Z,11.30
2022-12-22T20:16:55.610Z,11.30
2022-12-22T20:19:24.219Z,11.40
2022-12-22T20:21:53.369Z,11.30
2022-12-22T20:24:24.688Z,11.30
2022-12-22T20:26:54.821Z,11.30
2022-12-22T20:29:26.208Z,11.30
2022-12-22T20:31:54.796Z,11.30
2022-12-22T20:34:23.329Z,11.30
2022-12-22T20:36:51.992Z,11.20
2022-12-22T20:39:20.723Z,11.20
2022-12-22T20:41:53.522Z,11.10
2022-12-22T20:44:23.415Z,11.10
2022-12-22T20:46:53.241Z,11.10
2022-12-22T20:49:21.729Z,11.10
2022-12-22T20:51:50.235Z,11.10
2022-12-22T20:54:19.559Z,11.10
2022-12-22T20:56:47.976Z,11.10
2022-12-22T20:59:18.433Z,11.10
2022-12-22T21:01:48.022Z,11.10
2022-12-22T21:04:18.629Z,11.10
2022-12-22T21:06:50.227Z,11.00
2022-12-22T21:09:19.648Z,11.00
2022-12-22T21:11:48.387Z,10.90
2022-12-22T21:14:18.104Z,10.90
2022-12-22T21:16:46.651Z,10.90
2022-12-22T21:19:19.903Z,10.80
2022-12-22T21:21:49.361Z,10.80
2022-12-22T21:24:18.773Z,10.70
2022-12-22T21:26:49.315Z,10.70
2022-12-22T21:29:21.736Z,10.70
2022-12-22T21:31:50.246Z,10.60
2022-12-22T21:34:20.639Z,10.60
2022-12-22T21:36:52.799Z,10.60
2022-12-22T21:39:27.519Z,10.60
2022-12-22T21:42:01.997Z,10.60
2022-12-22T21:44:31.922Z,10.50
2022-12-22T21:47:00.726Z,10.50
2022-12-22T21:49:32.463Z,10.50
2022-12-22T21:52:00.939Z,10.50
2022-12-22T21:54:29.372Z,10.50
2022-12-22T21:56:58.147Z,10.50
2022-12-22T21:59:26.696Z,10.50
2022-12-22T22:01:56.466Z,10.40
2022-12-22T22:04:25.789Z,10.40
2022-12-22T22:06:55.611Z,10.40
2022-12-22T22:09:24.199Z,10.40
2022-12-22T22:12:10.217Z,10.40
2022-12-22T22:14:38.887Z,10.40
2022-12-22T22:17:07.271Z,10.40
2022-12-22T22:19:35.988Z,10.40
2022-12-22T22:22:05.882Z,10.30
2022-12-22T22:24:35.575Z,10.10
2022-12-22T22:27:04.005Z,10.10
2022-12-22T22:29:32.699Z,10.10
2022-12-22T22:32:01.079Z,10.10
2022-12-22T22:34:29.610Z,10.10
2022-12-22T22:36:58.092Z,10.10
2022-12-22T22:39:28.145Z,10.10
2022-12-22T22:41:56.593Z,10.10
2022-12-22T22:44:25.089Z,10.20
2022-12-22T22:46:53.557Z,10.10
2022-12-22T22:49:28.064Z,9.90
2022-12-22T22:51:57.340Z,9.70
2022-12-22T22:54:27.188Z,9.70
2022-12-22T22:56:55.818Z,9.70
2022-12-22T22:59:24.707Z,9.60
2022-12-22T23:01:54.055Z,9.60
2022-12-22T23:04:22.522Z,9.60
2022-12-22T23:06:51.078Z,9.50
2022-12-22T23:09:19.574Z,9.60
2022-12-22T23:11:51.760Z,9.60
2022-12-22T23:14:20.642Z,9.50
2022-12-22T23:16:49.900Z,9.50
2022-12-22T23:19:19.042Z,9.50
2022-12-22T23:21:47.917Z,9.40
2022-12-22T23:24:17.719Z,9.50
2022-12-22T23:26:46.147Z,9.40
2022-12-22T23:29:16.015Z,9.50
2022-12-22T23:31:44.582Z,9.40
2022-12-22T23:34:13.511Z,9.40
2022-12-22T23:36:41.933Z,9.40
2022-12-22T23:39:10.463Z,9.40
2022-12-22T23:41:38.861Z,9.40
2022-12-22T23:44:07.294Z,9.40
2022-12-22T23:46:37.261Z,9.40
2022-12-22T23:49:05.875Z,9.40
2022-12-22T23:51:34.494Z,9.40
2022-12-22T23:54:03.024Z,9.40
2022-12-22T23:56:31.980Z,9.40
2022-12-22T23:59:01.272Z,9.50
